ΕΜΥ, Εθνική Μετεωρολογική Υπηρεσία - Δελτία Καιρού, Προγνώσεις

ΑΕΡΟΝΑΥΤΙΛΙΑ

GREEK AIRPORTS CODES

TAF LGLE 190100Z 1903/1912 34015KT 9999 FEW018 TEMPO 1903/1912 34018G28KT=

EUROPEAN AIRPORTS CODES

LFPO 190200Z AUTO 28004KT CAVOK 17/15 Q1016 NOSIG=